Time;durP1;ratioP1;P1;durP2;ratioP2;P2;SDS_P1;SDS_P2;PMS_P1;PMS_P2;Temp;Humidity;BMP_temperature;BMP_pressure;BME280_temperature;BME280_humidity;BME280_pressure;Samples;Min_cycle;Max_cycle;Signal;HPM_P1;HPM_P2
2024/01/13 00:01:29;;;;;;;34.07;18.43;;;13.40;92.20;;;;;;4592178;19;20002;-69
2024/01/13 00:03:08;;;;;;;11.47;7.63;;;13.30;92.20;;;;;;4590527;19;20043;-69
2024/01/13 00:04:43;;;;;;;18.00;12.33;;;13.30;92.20;;;;;;4591845;19;20011;-69
2024/01/13 00:06:18;;;;;;;18.10;12.13;;;13.30;92.20;;;;;;4591878;19;20006;-69
2024/01/13 00:07:52;;;;;;;23.43;15.30;;;13.30;92.20;;;;;;4591829;19;19998;-69
2024/01/13 00:09:28;;;;;;;23.33;16.33;;;13.30;92.20;;;;;;4591975;19;20006;-69
2024/01/13 00:11:02;;;;;;;29.83;21.73;;;13.30;92.30;;;;;;4592014;19;20423;-69
2024/01/13 00:12:36;;;;;;;26.47;18.57;;;13.40;92.30;;;;;;4591138;19;20027;-69
2024/01/13 00:14:11;;;;;;;10.33;8.13;;;13.40;92.20;;;;;;4590965;19;20031;-69
2024/01/13 00:15:45;;;;;;;9.97;6.57;;;13.30;92.20;;;;;;4590667;19;20006;-69
2024/01/13 00:17:19;;;;;;;12.17;10.03;;;13.40;92.20;;;;;;4590307;19;19998;-69
2024/01/13 00:18:55;;;;;;;11.70;8.83;;;13.40;92.20;;;;;;4591393;19;20329;-69
2024/01/13 00:20:29;;;;;;;12.10;9.17;;;13.40;92.20;;;;;;4591908;19;20328;-69
2024/01/13 00:22:04;;;;;;;21.43;14.77;;;13.40;92.30;;;;;;4591392;19;20006;-69
2024/01/13 00:23:47;;;;;;;21.13;16.63;;;13.40;92.30;;;;;;4596403;19;20074;-69
2024/01/13 00:25:33;;;;;;;11.37;9.23;;;13.40;92.20;;;;;;4594283;19;20007;-69
2024/01/13 00:27:06;;;;;;;15.20;10.83;;;13.40;92.20;;;;;;4595949;19;20460;-69
2024/01/13 00:28:41;;;;;;;17.00;13.00;;;13.40;92.30;;;;;;4596525;19;20062;-69
2024/01/13 00:30:15;;;;;;;18.70;14.00;;;13.40;92.30;;;;;;4596133;19;20362;-69
2024/01/13 00:31:52;;;;;;;18.77;14.10;;;13.40;92.30;;;;;;4596187;19;20015;-69
2024/01/13 00:33:27;;;;;;;16.87;11.83;;;13.40;92.20;;;;;;4595427;19;20066;-69
2024/01/13 00:35:02;;;;;;;16.83;10.70;;;13.40;92.30;;;;;;4596056;19;19999;-69
2024/01/13 00:36:37;;;;;;;18.63;12.93;;;13.40;92.30;;;;;;4596044;19;20019;-69
2024/01/13 00:38:12;;;;;;;11.43;8.03;;;13.40;92.20;;;;;;4594988;19;20007;-69
2024/01/13 00:39:46;;;;;;;12.70;10.13;;;13.40;92.30;;;;;;4595894;19;19995;-69
2024/01/13 00:41:20;;;;;;;14.97;11.13;;;13.40;92.30;;;;;;4595997;19;20007;-69
2024/01/13 00:42:55;;;;;;;15.63;10.40;;;13.40;92.30;;;;;;4595325;19;20466;-69
2024/01/13 00:44:31;;;;;;;15.30;9.90;;;13.40;92.40;;;;;;4595900;19;20033;-69
2024/01/13 00:46:05;;;;;;;18.50;12.53;;;13.40;92.30;;;;;;4596098;19;20031;-69
2024/01/13 00:47:42;;;;;;;16.37;11.80;;;13.40;92.30;;;;;;4595794;19;20455;-69
2024/01/13 00:49:16;;;;;;;18.83;13.13;;;13.40;92.30;;;;;;4596091;19;20078;-69
2024/01/13 00:50:50;;;;;;;19.23;13.90;;;13.40;92.30;;;;;;4595792;19;20094;-69
2024/01/13 00:52:26;;;;;;;10.60;7.73;;;13.40;92.30;;;;;;4594953;19;20070;-69
2024/01/13 00:54:01;;;;;;;12.50;8.43;;;13.40;92.30;;;;;;4594343;19;19999;-69
2024/01/13 00:55:35;;;;;;;14.47;8.87;;;13.40;92.40;;;;;;4595627;19;19999;-69
2024/01/13 00:57:12;;;;;;;12.15;7.93;;;13.40;92.40;;;;;;4595720;19;19999;-69
2024/01/13 00:58:47;;;;;;;17.90;12.38;;;13.40;92.40;;;;;;4595885;19;20003;-69
2024/01/13 01:18:38;;;;;;;12.47;7.60;;;13.20;93.00;;;;;;4553888;19;19994;-69
2024/01/13 01:20:14;;;;;;;9.43;6.27;;;13.30;93.00;;;;;;4595204;19;20011;-68
2024/01/13 01:21:48;;;;;;;16.37;10.27;;;13.20;92.90;;;;;;4595058;19;20013;-69
2024/01/13 01:23:24;;;;;;;10.83;6.93;;;13.30;93.00;;;;;;4595625;19;20066;-68
2024/01/13 01:24:59;;;;;;;16.03;10.13;;;13.30;93.00;;;;;;4593751;19;20003;-69
2024/01/13 01:26:33;;;;;;;12.20;8.10;;;13.30;92.90;;;;;;4594708;19;20087;-69
2024/01/13 01:28:08;;;;;;;9.27;6.60;;;13.30;92.90;;;;;;4595057;19;20010;-69
2024/01/13 01:29:43;;;;;;;8.57;5.57;;;13.30;93.00;;;;;;4593607;19;20161;-69
2024/01/13 01:31:17;;;;;;;9.93;6.37;;;13.30;93.00;;;;;;4594959;19;20027;-68
2024/01/13 01:32:52;;;;;;;9.73;7.50;;;13.30;93.00;;;;;;4594283;19;19998;-69
2024/01/13 01:34:26;;;;;;;10.90;8.10;;;13.40;93.00;;;;;;4594633;19;20430;-69
2024/01/13 01:36:01;;;;;;;12.17;7.97;;;13.30;92.90;;;;;;4595115;19;20002;-68
2024/01/13 01:37:36;;;;;;;11.03;7.50;;;13.40;92.90;;;;;;4595116;19;20312;-69
2024/01/13 01:39:10;;;;;;;13.03;8.93;;;13.40;92.90;;;;;;4592926;19;20010;-68
2024/01/13 01:40:47;;;;;;;11.10;6.90;;;13.30;93.00;;;;;;4594600;19;20002;-69
2024/01/13 01:42:23;;;;;;;11.00;7.93;;;13.30;93.00;;;;;;4595103;19;20466;-69
2024/01/13 01:43:57;;;;;;;14.40;9.43;;;13.40;93.00;;;;;;4594692;19;20022;-68
2024/01/13 01:45:31;;;;;;;15.67;12.43;;;13.30;92.90;;;;;;4594668;19;20013;-68
2024/01/13 01:47:08;;;;;;;10.30;7.97;;;13.30;93.00;;;;;;4593776;19;20074;-69
2024/01/13 01:48:42;;;;;;;14.10;11.10;;;13.30;93.00;;;;;;4593952;19;20422;-69
2024/01/13 01:50:16;;;;;;;13.80;10.40;;;13.40;93.10;;;;;;4593193;19;20002;-69
2024/01/13 01:51:52;;;;;;;8.77;6.20;;;13.40;93.00;;;;;;4594297;19;20033;-69
2024/01/13 01:53:26;;;;;;;8.13;6.70;;;13.40;92.90;;;;;;4592796;19;20002;-68
2024/01/13 01:55:00;;;;;;;8.27;6.90;;;13.40;93.00;;;;;;4594087;19;20306;-69
2024/01/13 01:56:36;;;;;;;12.07;7.53;;;13.40;93.00;;;;;;4594455;19;20082;-68
2024/01/13 01:58:10;;;;;;;9.63;6.90;;;13.40;93.10;;;;;;4593078;19;20027;-68
2024/01/13 01:59:44;;;;;;;7.97;5.53;;;13.40;93.00;;;;;;4591645;19;20012;-69
2024/01/13 02:01:19;;;;;;;11.10;7.37;;;13.40;93.00;;;;;;4594082;19;20006;-69
2024/01/13 02:02:54;;;;;;;12.50;7.13;;;13.40;93.00;;;;;;4594285;19;20006;-69
2024/01/13 02:04:28;;;;;;;10.48;6.47;;;13.40;93.00;;;;;;4594247;19;20447;-68
2024/01/13 02:06:03;;;;;;;11.43;7.30;;;13.40;93.00;;;;;;4594149;19;20006;-69
2024/01/13 02:07:38;;;;;;;9.37;7.10;;;13.40;93.00;;;;;;4594233;19;20006;-69
2024/01/13 02:09:16;;;;;;;8.43;6.07;;;13.40;93.00;;;;;;4593362;19;20415;-68
2024/01/13 02:10:52;;;;;;;8.30;5.70;;;13.40;93.10;;;;;;4594454;19;20011;-68
2024/01/13 02:12:26;;;;;;;9.27;6.03;;;13.40;93.10;;;;;;4594335;19;20003;-68
2024/01/13 02:14:00;;;;;;;9.33;5.87;;;13.40;93.00;;;;;;4591751;19;20010;-68
2024/01/13 02:15:35;;;;;;;9.50;6.47;;;13.40;93.00;;;;;;4594047;19;20058;-68
2024/01/13 02:17:10;;;;;;;9.47;5.97;;;13.40;93.10;;;;;;4592950;19;20072;-68
2024/01/13 02:18:44;;;;;;;9.20;6.20;;;13.40;93.00;;;;;;4593141;19;20358;-68
2024/01/13 02:20:21;;;;;;;6.80;5.30;;;13.40;93.10;;;;;;4592717;19;20006;-68
2024/01/13 02:21:57;;;;;;;11.07;6.70;;;13.40;93.10;;;;;;4593860;19;20414;-68
2024/01/13 02:23:31;;;;;;;9.80;6.00;;;13.40;93.10;;;;;;4593840;19;20418;-68
2024/01/13 02:25:08;;;;;;;9.33;6.03;;;13.40;93.00;;;;;;4593876;19;20070;-68
2024/01/13 02:26:42;;;;;;;10.27;6.15;;;13.40;93.10;;;;;;4593800;19;20006;-68
2024/01/13 02:28:18;;;;;;;10.53;6.83;;;13.30;93.20;;;;;;4594307;19;20007;-68
2024/01/13 02:29:53;;;;;;;18.40;13.33;;;13.30;93.30;;;;;;4591114;19;20003;-68
2024/01/13 02:31:27;;;;;;;25.00;15.97;;;13.30;93.40;;;;;;4592636;19;20003;-68
2024/01/13 02:33:02;;;;;;;24.47;16.17;;;13.20;93.60;;;;;;4593263;19;20010;-68
2024/01/13 02:34:36;;;;;;;13.90;9.70;;;13.20;93.70;;;;;;4593917;19;20005;-69
2024/01/13 02:36:11;;;;;;;10.97;7.57;;;13.30;93.70;;;;;;4593606;19;20070;-69
2024/01/13 02:37:47;;;;;;;10.23;6.87;;;13.30;93.60;;;;;;4593620;19;20007;-69
2024/01/13 02:39:21;;;;;;;12.83;8.43;;;13.20;93.50;;;;;;4592706;19;20002;-68
2024/01/13 02:40:55;;;;;;;10.43;7.10;;;13.30;93.60;;;;;;4593484;19;20002;-68
2024/01/13 02:42:31;;;;;;;12.73;7.80;;;13.30;93.50;;;;;;4593440;19;20026;-68
2024/01/13 02:44:05;;;;;;;10.93;7.83;;;13.30;93.50;;;;;;4593386;19;20018;-68
2024/01/13 02:45:39;;;;;;;15.37;9.27;;;13.30;93.50;;;;;;4591516;19;20411;-68
2024/01/13 02:47:14;;;;;;;10.77;7.43;;;13.30;93.40;;;;;;4593467;19;20010;-69
2024/01/13 02:48:53;;;;;;;12.33;8.37;;;13.30;93.50;;;;;;4592992;19;20112;-68
2024/01/13 02:50:29;;;;;;;9.23;6.93;;;13.40;93.50;;;;;;4592304;19;20023;-68
2024/01/13 02:52:05;;;;;;;11.63;7.80;;;13.30;93.50;;;;;;4593037;19;20019;-68
2024/01/13 02:53:38;;;;;;;11.83;6.97;;;13.30;93.50;;;;;;4592667;19;20009;-68
2024/01/13 02:55:12;;;;;;;11.10;7.80;;;13.40;93.50;;;;;;4593221;19;19999;-68
2024/01/13 02:56:48;;;;;;;11.37;7.37;;;13.40;93.60;;;;;;4593434;19;20011;-68
2024/01/13 02:58:22;;;;;;;12.97;7.77;;;13.40;93.70;;;;;;4591815;19;20304;-68
2024/01/13 02:59:56;;;;;;;12.48;7.93;;;13.40;93.50;;;;;;4591565;19;20027;-68
2024/01/13 03:01:32;;;;;;;12.23;7.90;;;13.40;93.60;;;;;;4593085;19;20002;-68
2024/01/13 03:03:05;;;;;;;11.23;7.03;;;13.40;93.50;;;;;;4592998;19;20017;-68
2024/01/13 03:04:40;;;;;;;9.05;7.03;;;13.40;93.50;;;;;;4593072;19;20078;-68
2024/01/13 03:06:16;;;;;;;8.70;6.57;;;13.40;93.50;;;;;;4592984;19;20007;-68
2024/01/13 03:07:51;;;;;;;10.87;6.73;;;13.40;93.50;;;;;;4592935;19;20023;-68
2024/01/13 03:09:24;;;;;;;12.10;7.60;;;13.40;93.50;;;;;;4592349;19;20407;-68
